Time;durP1;ratioP1;P1;durP2;ratioP2;P2;SDS_P1;SDS_P2;PMS_P1;PMS_P2;Temp;Humidity;BMP_temperature;BMP_pressure;BME280_temperature;BME280_humidity;BME280_pressure;Samples;Min_cycle;Max_cycle;Signal;HPM_P1;HPM_P2
2021/04/10 00:01:18;;;;;;;5.10;3.63;;;12.60;92.50;;;;;;5034655;28;20269;-80
2021/04/10 00:03:44;;;;;;;2.67;2.43;;;12.50;92.70;;;;;;5014380;28;20218;-79
2021/04/10 00:06:10;;;;;;;4.00;2.97;;;12.50;92.70;;;;;;5043597;28;20415;-79
2021/04/10 00:08:37;;;;;;;4.50;2.87;;;12.40;92.70;;;;;;5021469;28;20249;-79
2021/04/10 00:11:02;;;;;;;3.57;3.10;;;12.40;92.80;;;;;;5045360;28;20504;-78
2021/04/10 00:13:28;;;;;;;4.30;3.13;;;12.40;92.80;;;;;;5020985;28;20985;-79
2021/04/10 00:15:54;;;;;;;5.33;3.80;;;12.30;92.90;;;;;;5017263;28;20218;-80
2021/04/10 00:18:19;;;;;;;5.70;3.20;;;12.40;92.90;;;;;;5042360;28;20193;-80
2021/04/10 00:20:45;;;;;;;3.80;3.17;;;12.30;92.90;;;;;;5059536;28;20462;-80
2021/04/10 00:23:11;;;;;;;5.33;4.00;;;12.30;93.20;;;;;;5041283;28;20220;-79
2021/04/10 00:25:37;;;;;;;4.23;3.57;;;12.30;93.20;;;;;;5047526;28;20280;-78
2021/04/10 00:28:03;;;;;;;4.87;3.30;;;12.30;93.30;;;;;;5047259;28;20462;-79
2021/04/10 00:30:29;;;;;;;4.13;3.43;;;12.30;93.30;;;;;;5044238;28;20417;-78
2021/04/10 00:32:54;;;;;;;4.17;3.50;;;12.30;93.30;;;;;;5029495;28;20460;-80
2021/04/10 00:35:20;;;;;;;3.63;3.23;;;12.30;93.40;;;;;;5034688;28;20221;-79
2021/04/10 00:37:46;;;;;;;4.53;3.13;;;12.20;93.60;;;;;;5045357;28;20182;-79
2021/04/10 00:40:12;;;;;;;3.00;2.70;;;12.20;93.70;;;;;;5045067;28;20187;-82
2021/04/10 00:42:38;;;;;;;4.77;3.60;;;12.20;93.80;;;;;;5042737;28;20725;-78
2021/04/10 00:45:09;;;;;;;3.30;2.97;;;12.20;93.80;;;;;;5033206;28;20414;-80
2021/04/10 00:47:34;;;;;;;5.00;3.43;;;12.20;93.90;;;;;;5045807;28;20421;-78
2021/04/10 00:50:00;;;;;;;4.70;3.43;;;12.10;94.00;;;;;;5045930;28;20435;-79
2021/04/10 00:52:27;;;;;;;4.27;3.60;;;12.20;94.20;;;;;;5044679;28;20448;-78
2021/04/10 00:54:52;;;;;;;4.60;3.20;;;12.10;94.10;;;;;;5045137;28;20475;-79
2021/04/10 00:57:19;;;;;;;3.20;2.60;;;12.20;94.30;;;;;;5045636;28;20932;-80
2021/04/10 00:59:46;;;;;;;5.20;3.77;;;12.20;94.50;;;;;;5017611;28;20319;-79
2021/04/10 01:02:13;;;;;;;5.07;4.33;;;12.20;94.50;;;;;;5039958;28;20413;-79
2021/04/10 01:04:40;;;;;;;3.63;3.27;;;12.20;94.80;;;;;;5042456;28;20417;-80
2021/04/10 01:07:06;;;;;;;3.57;3.27;;;12.20;94.60;;;;;;5046991;28;20427;-80
2021/04/10 01:09:32;;;;;;;3.63;3.33;;;12.20;94.60;;;;;;5046343;28;20421;-78
2021/04/10 01:12:09;;;;;;;5.40;3.50;;;12.20;94.80;;;;;;5042016;28;20409;-78
2021/04/10 01:15:19;;;;;;;4.37;3.83;;;12.20;94.90;;;;;;5041247;28;20429;-80
2021/04/10 01:17:55;;;;;;;6.23;4.00;;;12.10;98.80;;;;;;4992437;28;20452;-80
2021/04/10 01:20:54;;;;;;;8.27;4.00;;;11.70;99.90;;;;;;5054820;28;20479;-80
2021/04/10 01:23:36;;;;;;;5.20;4.57;;;11.50;99.90;;;;;;5051633;28;20460;-79
2021/04/10 01:26:09;;;;;;;5.67;4.20;;;11.30;99.90;;;;;;5033340;28;20422;-80
2021/04/10 01:28:53;;;;;;;5.37;3.60;;;11.20;99.90;;;;;;5055598;28;20413;-81
2021/04/10 01:31:23;;;;;;;4.10;3.70;;;11.20;99.90;;;;;;5046742;28;20413;-81
2021/04/10 01:33:54;;;;;;;5.50;4.47;;;11.20;99.90;;;;;;5050690;28;20473;-80
2021/04/10 01:36:26;;;;;;;3.97;3.53;;;11.20;99.90;;;;;;5055301;28;20438;-81
2021/04/10 01:38:53;;;;;;;11.23;4.87;;;11.20;99.90;;;;;;5044232;28;20422;-81
2021/04/10 01:41:21;;;;;;;9.00;4.50;;;11.20;99.90;;;;;;5050551;28;20445;-82
2021/04/10 01:43:48;;;;;;;7.93;5.77;;;11.20;99.90;;;;;;5055165;28;21003;-80
2021/04/10 01:46:16;;;;;;;6.77;5.00;;;11.30;99.90;;;;;;5057357;28;20460;-81
2021/04/10 01:48:43;;;;;;;8.80;4.90;;;11.30;99.90;;;;;;5056016;28;20903;-80
2021/04/10 01:51:09;;;;;;;5.20;4.07;;;11.30;99.90;;;;;;5053488;28;20933;-80
2021/04/10 01:53:35;;;;;;;8.53;3.83;;;11.30;99.90;;;;;;5048224;28;20783;-81
2021/04/10 01:56:03;;;;;;;4.57;4.07;;;11.30;99.90;;;;;;5030875;28;20418;-81
2021/04/10 01:58:28;;;;;;;4.43;3.67;;;11.30;99.90;;;;;;5044975;28;20425;-80
2021/04/10 02:00:56;;;;;;;5.73;3.87;;;11.30;99.90;;;;;;5026539;28;20893;-80
2021/04/10 02:03:22;;;;;;;5.07;4.20;;;11.40;99.90;;;;;;5032804;28;20289;-80
2021/04/10 02:05:50;;;;;;;4.00;3.57;;;11.40;99.90;;;;;;5025423;28;20417;-80
2021/04/10 02:08:18;;;;;;;3.97;3.40;;;11.30;99.90;;;;;;5043511;28;20436;-80
2021/04/10 02:10:45;;;;;;;6.40;4.07;;;11.40;99.90;;;;;;5042924;28;20421;-81
2021/04/10 02:13:12;;;;;;;12.33;4.33;;;11.40;99.90;;;;;;5053878;28;20438;-80
2021/04/10 02:15:38;;;;;;;5.93;4.03;;;11.30;99.90;;;;;;5055940;28;20429;-79
2021/04/10 02:18:04;;;;;;;4.40;4.00;;;11.40;99.90;;;;;;5055313;28;20749;-79
2021/04/10 02:20:30;;;;;;;5.43;3.80;;;11.40;99.90;;;;;;5057161;28;20194;-80
2021/04/10 02:22:57;;;;;;;5.03;3.67;;;11.30;99.90;;;;;;5057337;28;20482;-79
2021/04/10 02:25:28;;;;;;;4.60;3.63;;;11.40;99.90;;;;;;5056366;28;20401;-80
2021/04/10 02:27:54;;;;;;;7.40;3.70;;;11.40;99.90;;;;;;5055067;28;20867;-80
2021/04/10 02:30:22;;;;;;;5.80;4.07;;;11.40;99.90;;;;;;5057477;28;20477;-81
2021/04/10 02:32:56;;;;;;;4.80;4.27;;;11.40;99.90;;;;;;5036555;28;20456;-79
2021/04/10 02:35:39;;;;;;;5.47;3.80;;;11.40;99.90;;;;;;5056716;28;20416;-80
2021/04/10 02:38:06;;;;;;;8.67;4.60;;;11.30;99.90;;;;;;5057811;28;20443;-79
2021/04/10 02:40:36;;;;;;;4.60;3.97;;;11.30;99.90;;;;;;5053743;28;20433;-80
2021/04/10 02:43:05;;;;;;;4.37;3.97;;;11.30;99.90;;;;;;5043697;28;20836;-79
2021/04/10 02:45:32;;;;;;;4.83;4.00;;;11.30;99.90;;;;;;5055939;28;20459;-81
2021/04/10 02:48:03;;;;;;;7.60;4.90;;;11.30;99.90;;;;;;5044287;28;20418;-80
2021/04/10 02:50:29;;;;;;;4.53;3.77;;;11.20;99.90;;;;;;5052085;28;21000;-79
2021/04/10 02:52:57;;;;;;;7.97;5.50;;;11.20;99.90;;;;;;5039326;28;20441;-80
2021/04/10 02:55:45;;;;;;;7.47;4.70;;;11.10;99.90;;;;;;5039487;28;20568;-80
2021/04/10 02:58:13;;;;;;;7.23;4.53;;;11.00;99.90;;;;;;5037307;28;20813;-80
2021/04/10 03:00:42;;;;;;;5.00;3.80;;;10.90;99.90;;;;;;5042020;28;20432;-79
2021/04/10 03:03:11;;;;;;;5.80;4.90;;;10.90;99.90;;;;;;5038847;28;20471;-81
2021/04/10 03:05:38;;;;;;;8.07;5.50;;;10.80;99.90;;;;;;5045232;28;20418;-81
2021/04/10 03:08:06;;;;;;;8.03;4.80;;;10.70;99.90;;;;;;5051590;28;20416;-79
2021/04/10 03:10:32;;;;;;;7.40;5.80;;;10.70;99.90;;;;;;5041965;28;20995;-80
2021/04/10 03:12:59;;;;;;;6.30;5.33;;;10.60;99.90;;;;;;5034859;28;20440;-79
2021/04/10 03:15:25;;;;;;;7.20;4.93;;;10.60;99.90;;;;;;5040592;28;20424;-80
2021/04/10 03:17:52;;;;;;;8.13;5.10;;;10.50;99.90;;;;;;5043628;28;20443;-79
2021/04/10 03:20:20;;;;;;;5.63;4.53;;;10.50;99.90;;;;;;5043981;28;20526;-80
2021/04/10 03:22:48;;;;;;;7.77;5.57;;;10.40;99.90;;;;;;5045306;28;20464;-79
2021/04/10 03:25:15;;;;;;;4.73;4.33;;;10.40;99.90;;;;;;5029095;28;21113;-80
2021/04/10 03:27:41;;;;;;;6.50;4.70;;;10.40;99.90;;;;;;5048483;28;20418;-79
2021/04/10 03:30:09;;;;;;;8.10;4.37;;;10.40;99.90;;;;;;5055658;28;20417;-80
2021/04/10 03:32:36;;;;;;;5.23;4.73;;;10.30;99.90;;;;;;5062068;28;20476;-82
2021/04/10 03:35:02;;;;;;;5.00;4.60;;;10.30;99.90;;;;;;5063244;28;20421;-80
2021/04/10 03:37:30;;;;;;;6.87;4.57;;;10.30;99.90;;;;;;5047520;28;20428;-80
2021/04/10 03:39:56;;;;;;;4.47;4.07;;;10.20;99.90;;;;;;5043369;28;20448;-78
2021/04/10 03:42:39;;;;;;;5.00;4.20;;;10.20;99.90;;;;;;5045526;28;20544;-79
2021/04/10 03:45:06;;;;;;;5.50;4.03;;;10.10;99.90;;;;;;5040264;28;20428;-80
2021/04/10 03:47:32;;;;;;;4.57;3.73;;;10.20;99.90;;;;;;5051311;28;20413;-80
2021/04/10 03:49:58;;;;;;;4.70;3.93;;;10.20;99.90;;;;;;5045137;28;20480;-80
2021/04/10 03:52:23;;;;;;;7.00;4.47;;;10.20;99.90;;;;;;5061902;28;20188;-79
2021/04/10 03:54:49;;;;;;;5.43;4.70;;;10.20;99.90;;;;;;5055352;28;20221;-80
2021/04/10 03:57:14;;;;;;;4.20;3.90;;;10.30;99.90;;;;;;5049999;28;20218;-80
2021/04/10 03:59:41;;;;;;;6.90;3.80;;;10.30;99.90;;;;;;5039489;28;20182;-79
2021/04/10 04:02:06;;;;;;;4.80;3.90;;;10.30;99.90;;;;;;5018980;28;20179;-79
2021/04/10 04:04:32;;;;;;;6.30;4.40;;;10.30;99.90;;;;;;5037243;28;20477;-79
2021/04/10 04:06:57;;;;;;;3.87;3.47;;;10.20;99.90;;;;;;5041825;28;20205;-79
2021/04/10 04:09:23;;;;;;;4.70;4.20;;;10.20;99.90;;;;;;5033475;28;20561;-79
2021/04/10 04:11:49;;;;;;;5.23;3.97;;;10.20;99.90;;;;;;5036387;28;20546;-80
2021/04/10 04:14:14;;;;;;;4.33;3.40;;;10.20;99.90;;;;;;5019104;28;20237;-80
2021/04/10 04:16:40;;;;;;;4.57;4.20;;;10.30;99.90;;;;;;5046095;28;20197;-78
2021/04/10 04:19:06;;;;;;;4.47;4.10;;;10.30;99.90;;;;;;5038655;28;20185;-78
2021/04/10 04:21:31;;;;;;;5.00;4.50;;;10.30;99.90;;;;;;5046770;28;20186;-79
2021/04/10 04:23:57;;;;;;;4.33;3.70;;;10.40;99.90;;;;;;5021626;28;20215;-79
2021/04/10 04:26:22;;;;;;;4.83;4.03;;;10.40;99.90;;;;;;5047003;28;20679;-79
2021/04/10 04:28:48;;;;;;;6.00;4.10;;;10.40;99.90;;;;;;5053928;28;20233;-80
2021/04/10 04:31:13;;;;;;;7.13;4.60;;;10.40;99.90;;;;;;5039700;28;20194;-79
2021/04/10 04:33:39;;;;;;;5.40;4.30;;;10.40;99.90;;;;;;5043319;28;20248;-78
2021/04/10 04:36:05;;;;;;;5.60;4.27;;;10.50;99.90;;;;;;5037174;28;20187;-78
2021/04/10 04:38:30;;;;;;;5.70;5.10;;;10.50;99.90;;;;;;5028535;28;20187;-80
2021/04/10 04:40:56;;;;;;;5.10;3.93;;;10.50;99.90;;;;;;5041878;28;20426;-79
2021/04/10 04:43:22;;;;;;;4.33;3.93;;;10.50;99.90;;;;;;5036687;28;20214;-80
2021/04/10 04:45:47;;;;;;;6.93;4.27;;;10.50;99.90;;;;;;5046710;28;20381;-80
2021/04/10 04:48:13;;;;;;;4.90;4.50;;;10.50;99.90;;;;;;5022665;28;20194;-79
2021/04/10 04:50:38;;;;;;;3.93;3.63;;;10.40;99.90;;;;;;5057805;28;20695;-80
2021/04/10 04:53:04;;;;;;;5.93;4.60;;;10.40;99.90;;;;;;5050140;28;20206;-79
2021/04/10 04:55:30;;;;;;;6.67;5.43;;;10.30;99.90;;;;;;5056130;28;20194;-79
2021/04/10 04:57:56;;;;;;;5.70;5.20;;;10.20;99.90;;;;;;5019631;28;20430;-78
2021/04/10 05:00:22;;;;;;;6.20;5.00;;;10.10;99.90;;;;;;5039076;28;20194;-78
2021/04/10 05:02:47;;;;;;;6.60;6.00;;;10.00;99.90;;;;;;5028610;28;20230;-77
2021/04/10 05:05:13;;;;;;;6.90;6.27;;;9.90;99.90;;;;;;5046460;28;20437;-78
2021/04/10 05:07:39;;;;;;;6.80;6.10;;;9.80;99.90;;;;;;5062578;28;20178;-79
2021/04/10 05:10:05;;;;;;;6.70;6.00;;;9.80;99.90;;;;;;5049584;28;20424;-77
2021/04/10 05:12:30;;;;;;;7.43;6.73;;;9.80;99.90;;;;;;5045386;28;20274;-78
2021/04/10 05:14:56;;;;;;;7.37;5.60;;;9.80;99.90;;;;;;5042813;28;20463;-78
2021/04/10 05:17:21;;;;;;;5.87;5.37;;;9.70;99.90;;;;;;5059055;28;20210;-79
2021/04/10 05:19:47;;;;;;;5.60;5.00;;;9.80;99.90;;;;;;5052027;28;20538;-78
2021/04/10 05:22:12;;;;;;;5.83;5.30;;;9.80;99.90;;;;;;5045365;28;20183;-78
2021/04/10 05:24:38;;;;;;;7.20;6.10;;;9.80;99.90;;;;;;5037508;28;20237;-81
2021/04/10 05:27:04;;;;;;;7.00;6.23;;;9.80;99.90;;;;;;5044128;28;20204;-79
2021/04/10 05:29:29;;;;;;;6.10;5.70;;;9.80;99.90;;;;;;5041287;28;20186;-79
2021/04/10 05:31:55;;;;;;;6.20;5.60;;;9.80;99.90;;;;;;5044353;28;20515;-78
2021/04/10 05:34:21;;;;;;;6.47;5.77;;;9.70;99.90;;;;;;5042577;28;20289;-77
2021/04/10 05:36:46;;;;;;;6.87;6.17;;;9.70;99.90;;;;;;5042875;28;20282;-78
2021/04/10 05:39:12;;;;;;;6.57;6.00;;;9.70;99.90;;;;;;5047350;28;20255;-79
2021/04/10 05:41:37;;;;;;;8.37;5.80;;;9.60;99.90;;;;;;5043089;28;20244;-78
2021/04/10 05:44:03;;;;;;;6.87;6.03;;;9.60;99.90;;;;;;5042069;28;20216;-80
2021/04/10 05:46:29;;;;;;;7.67;5.60;;;9.60;99.90;;;;;;5040878;28;20183;-77
2021/04/10 05:48:54;;;;;;;6.60;6.03;;;9.60;99.90;;;;;;5044873;28;20789;-78
2021/04/10 05:51:20;;;;;;;7.13;6.53;;;9.60;99.90;;;;;;5042090;28;20206;-77
2021/04/10 05:53:46;;;;;;;5.43;5.00;;;9.60;99.90;;;;;;5034885;28;20210;-79
2021/04/10 05:56:12;;;;;;;5.83;5.30;;;9.60;99.90;;;;;;5049245;28;20183;-79
2021/04/10 05:58:38;;;;;;;5.30;4.90;;;9.70;99.90;;;;;;5061162;28;20457;-78
2021/04/10 06:01:04;;;;;;;4.90;4.60;;;9.70;99.90;;;;;;5048994;28;20235;-80
2021/04/10 06:03:30;;;;;;;7.80;5.67;;;9.70;99.90;;;;;;5041536;28;20503;-76
2021/04/10 06:05:56;;;;;;;5.17;4.70;;;9.70;99.90;;;;;;5042001;28;20185;-78
2021/04/10 06:08:21;;;;;;;5.20;4.37;;;9.60;99.90;;;;;;5021615;28;20426;-78
2021/04/10 06:10:47;;;;;;;5.30;4.80;;;9.60;99.90;;;;;;5042431;28;20179;-79
2021/04/10 06:13:12;;;;;;;5.07;4.57;;;9.60;99.90;;;;;;5017038;28;20218;-77
2021/04/10 06:15:38;;;;;;;5.23;4.83;;;9.60;99.90;;;;;;5041043;28;20446;-78
2021/04/10 06:18:05;;;;;;;5.87;4.97;;;9.60;99.90;;;;;;5040867;28;20185;-79
2021/04/10 06:20:30;;;;;;;5.07;4.40;;;9.60;99.90;;;;;;5034155;28;20187;-78
2021/04/10 06:22:56;;;;;;;5.00;4.60;;;9.60;99.90;;;;;;5041934;28;20468;-76
2021/04/10 06:25:21;;;;;;;4.00;3.70;;;9.60;99.90;;;;;;5041963;28;20265;-77
2021/04/10 06:27:47;;;;;;;5.93;4.50;;;9.60;99.90;;;;;;5025399;28;20274;-79
2021/04/10 06:30:13;;;;;;;4.23;3.83;;;9.60;99.90;;;;;;5027359;28;20647;-79
2021/04/10 06:32:45;;;;;;;5.57;5.07;;;9.60;99.90;;;;;;5044350;28;20305;-78
2021/04/10 06:35:11;;;;;;;8.83;5.57;;;9.60;99.90;;;;;;5042954;28;20430;-79
2021/04/10 06:37:37;;;;;;;4.87;4.37;;;9.60;99.90;;;;;;5056497;28;20429;-78
2021/04/10 06:40:05;;;;;;;4.97;3.97;;;9.60;99.90;;;;;;5034884;28;20851;-79
2021/04/10 06:42:31;;;;;;;3.20;3.00;;;9.70;99.90;;;;;;5043572;28;20213;-78
2021/04/10 06:44:58;;;;;;;4.20;3.80;;;9.70;99.90;;;;;;5042759;28;20894;-79
2021/04/10 06:47:26;;;;;;;4.37;3.80;;;9.80;99.90;;;;;;5042930;28;20421;-79
2021/04/10 06:49:53;;;;;;;5.03;4.53;;;9.80;99.90;;;;;;5041742;28;20416;-79
2021/04/10 06:52:20;;;;;;;4.20;3.80;;;9.90;99.90;;;;;;5042396;28;20428;-78
2021/04/10 06:55:01;;;;;;;4.57;3.90;;;9.90;99.90;;;;;;5039354;28;20422;-79
2021/04/10 06:57:32;;;;;;;4.60;3.90;;;9.90;99.90;;;;;;5051085;28;20922;-79
2021/04/10 07:00:07;;;;;;;4.20;3.83;;;10.00;99.90;;;;;;5051270;28;20418;-79
2021/04/10 07:02:34;;;;;;;6.63;4.03;;;10.00;99.90;;;;;;5032286;28;20491;-78
2021/04/10 07:05:00;;;;;;;3.90;3.60;;;10.00;99.90;;;;;;5048147;28;20414;-78
2021/04/10 07:07:27;;;;;;;3.87;3.40;;;10.00;99.90;;;;;;5038244;28;20433;-78
2021/04/10 07:09:53;;;;;;;4.43;4.13;;;10.00;99.90;;;;;;5048667;28;20172;-77
2021/04/10 07:12:19;;;;;;;4.67;4.13;;;10.00;99.90;;;;;;5022326;28;20425;-79
2021/04/10 07:14:45;;;;;;;3.80;3.43;;;10.10;99.90;;;;;;5043232;28;20425;-77
2021/04/10 07:17:15;;;;;;;3.70;3.40;;;10.10;99.90;;;;;;5024124;28;20433;-78
2021/04/10 07:19:42;;;;;;;4.40;4.00;;;10.10;99.90;;;;;;5044294;28;20656;-79
2021/04/10 07:22:09;;;;;;;4.33;3.67;;;10.10;99.90;;;;;;5048411;28;20433;-78
2021/04/10 07:24:45;;;;;;;5.97;4.20;;;10.00;99.90;;;;;;5038668;28;20466;-77
2021/04/10 07:27:18;;;;;;;3.83;3.53;;;10.00;99.90;;;;;;5040914;28;20440;-79
2021/04/10 07:29:49;;;;;;;4.13;3.80;;;10.00;99.90;;;;;;5027191;28;20406;-79
2021/04/10 07:32:37;;;;;;;3.77;3.47;;;10.00;99.90;;;;;;5024699;28;20420;-79
2021/04/10 07:35:04;;;;;;;4.50;3.50;;;10.00;99.90;;;;;;5032917;28;20425;-79
2021/04/10 07:37:41;;;;;;;4.00;3.60;;;10.00;99.90;;;;;;5044571;28;20420;-79
2021/04/10 07:40:09;;;;;;;5.60;4.33;;;10.00;99.90;;;;;;5041133;28;20500;-79
2021/04/10 07:42:45;;;;;;;3.97;3.67;;;10.00;99.90;;;;;;5039167;28;20784;-78
2021/04/10 07:45:28;;;;;;;3.23;3.03;;;10.00;99.90;;;;;;5029308;28;20496;-78
2021/04/10 07:48:05;;;;;;;3.63;3.33;;;10.00;99.90;;;;;;5033892;28;20843;-78
2021/04/10 07:50:33;;;;;;;4.73;3.63;;;10.00;99.90;;;;;;5037568;28;20944;-78
2021/04/10 07:53:21;;;;;;;4.03;3.77;;;10.00;99.90;;;;;;5018402;28;20438;-78
2021/04/10 07:55:47;;;;;;;4.23;3.47;;;10.00;99.90;;;;;;5040459;28;20423;-79
2021/04/10 07:58:26;;;;;;;5.03;3.73;;;10.00;99.90;;;;;;5021441;28;20917;-78
2021/04/10 08:00:54;;;;;;;3.10;2.80;;;9.90;99.90;;;;;;5016389;28;20419;-76
2021/04/10 08:03:31;;;;;;;4.70;3.53;;;9.90;99.90;;;;;;5031366;28;20458;-76
2021/04/10 08:06:12;;;;;;;3.33;3.13;;;9.90;99.90;;;;;;5010182;28;20417;-78
2021/04/10 08:08:58;;;;;;;4.27;3.43;;;9.90;99.90;;;;;;5039417;28;20431;-78
2021/04/10 08:11:42;;;;;;;4.00;3.70;;;9.80;99.90;;;;;;5040262;28;20421;-78
2021/04/10 08:14:10;;;;;;;3.43;3.13;;;9.80;99.90;;;;;;5034061;28;20453;-77
2021/04/10 08:16:52;;;;;;;3.63;3.20;;;9.70;99.90;;;;;;5028169;28;20478;-78
2021/04/10 08:19:28;;;;;;;4.20;3.33;;;9.60;99.90;;;;;;5019572;28;20436;-79
2021/04/10 08:21:54;;;;;;;3.60;2.93;;;9.60;99.90;;;;;;5029801;28;20426;-77
2021/04/10 08:24:20;;;;;;;3.10;2.70;;;9.50;99.90;;;;;;5036685;28;20484;-80
2021/04/10 08:26:46;;;;;;;3.83;3.27;;;9.50;99.90;;;;;;5042111;28;20919;-79
2021/04/10 08:29:12;;;;;;;5.23;3.10;;;9.40;99.90;;;;;;5041526;28;20542;-79
2021/04/10 08:31:38;;;;;;;3.70;3.40;;;9.40;99.90;;;;;;5046561;28;20525;-78
2021/04/10 08:34:04;;;;;;;5.00;3.37;;;9.40;99.90;;;;;;5054636;28;20249;-79
2021/04/10 08:36:31;;;;;;;4.93;3.70;;;9.40;99.90;;;;;;5046857;28;20493;-80
2021/04/10 08:38:57;;;;;;;5.23;3.70;;;9.40;99.90;;;;;;5058296;28;20188;-80
2021/04/10 08:41:28;;;;;;;4.27;3.87;;;9.30;99.90;;;;;;5056502;28;20421;-81
2021/04/10 08:43:55;;;;;;;5.00;3.57;;;9.40;99.90;;;;;;5030943;28;20457;-79
2021/04/10 08:46:22;;;;;;;4.70;3.27;;;9.40;99.90;;;;;;5043044;28;20504;-81
2021/04/10 08:48:55;;;;;;;3.60;3.30;;;9.60;99.90;;;;;;5037840;28;20458;-78
2021/04/10 08:51:22;;;;;;;3.63;3.33;;;9.60;99.90;;;;;;5044862;28;20452;-79
2021/04/10 08:53:50;;;;;;;3.37;3.13;;;9.70;99.90;;;;;;5044223;28;20463;-78
2021/04/10 08:56:21;;;;;;;3.20;2.80;;;9.60;99.90;;;;;;5044071;28;20452;-79
2021/04/10 08:58:48;;;;;;;3.47;3.17;;;9.60;99.90;;;;;;5065718;28;20431;-79
2021/04/10 09:01:26;;;;;;;5.20;3.00;;;9.60;99.90;;;;;;5067361;28;20431;-80
2021/04/10 09:03:53;;;;;;;3.20;2.90;;;9.70;99.90;;;;;;5039998;28;20505;-79
2021/04/10 09:06:22;;;;;;;2.93;2.53;;;9.70;99.90;;;;;;5045942;28;20421;-80
2021/04/10 09:08:48;;;;;;;9.80;3.30;;;9.70;99.90;;;;;;5045688;28;20456;-79
2021/04/10 09:11:21;;;;;;;4.40;2.87;;;9.70;99.90;;;;;;5046382;28;20506;-79
2021/04/10 09:13:52;;;;;;;3.47;2.63;;;9.70;99.90;;;;;;5025437;28;20528;-80
2021/04/10 09:16:37;;;;;;;2.60;2.37;;;9.60;99.90;;;;;;5052438;28;20500;-81
2021/04/10 09:19:27;;;;;;;3.33;3.00;;;9.70;99.90;;;;;;5048936;28;20438;-80
2021/04/10 09:21:58;;;;;;;2.93;2.00;;;9.70;99.90;;;;;;5054372;28;20444;-80
2021/04/10 09:24:31;;;;;;;2.73;2.43;;;9.60;99.90;;;;;;5042164;28;20927;-80
2021/04/10 09:27:21;;;;;;;4.20;3.70;;;9.70;99.90;;;;;;5043764;28;20417;-79
2021/04/10 09:30:06;;;;;;;3.03;2.83;;;9.70;99.90;;;;;;5044166;28;20402;-79
2021/04/10 09:32:33;;;;;;;3.70;3.10;;;9.60;99.90;;;;;;5043016;28;20448;-78
2021/04/10 09:35:13;;;;;;;3.30;3.10;;;9.70;99.90;;;;;;5038442;28;20476;-78
2021/04/10 09:37:38;;;;;;;3.43;3.20;;;9.60;99.90;;;;;;5043852;28;20950;-79
2021/04/10 09:40:19;;;;;;;3.03;2.83;;;9.60;99.90;;;;;;5037471;28;20426;-79
2021/04/10 09:42:53;;;;;;;3.90;3.60;;;9.70;99.90;;;;;;5039552;28;20214;-77
2021/04/10 09:45:39;;;;;;;5.70;3.20;;;9.80;99.90;;;;;;5046242;28;20413;-77
2021/04/10 09:48:05;;;;;;;6.03;3.67;;;9.80;99.90;;;;;;5034999;28;20445;-78
2021/04/10 09:50:32;;;;;;;3.70;3.40;;;9.80;99.90;;;;;;5057001;28;20478;-78
2021/04/10 09:52:58;;;;;;;5.17;4.40;;;9.90;99.90;;;;;;5039518;28;20448;-80
2021/04/10 09:55:26;;;;;;;4.33;3.27;;;9.90;99.90;;;;;;5044094;28;21171;-79
2021/04/10 09:57:54;;;;;;;3.87;3.30;;;9.90;99.90;;;;;;5046574;28;20424;-79
2021/04/10 10:00:30;;;;;;;6.10;3.37;;;9.90;99.90;;;;;;5042300;28;20475;-77
2021/04/10 10:02:59;;;;;;;3.83;3.43;;;9.90;99.90;;;;;;5030721;28;20461;-78
2021/04/10 10:05:34;;;;;;;3.80;3.30;;;9.90;99.90;;;;;;5039255;28;20500;-79
2021/04/10 10:08:07;;;;;;;3.57;3.27;;;9.90;99.90;;;;;;5045274;28;20421;-77
2021/04/10 10:10:40;;;;;;;4.60;3.27;;;10.00;99.90;;;;;;5038116;28;21121;-77
2021/04/10 10:13:20;;;;;;;4.37;3.97;;;10.10;99.90;;;;;;5043256;28;20490;-79
2021/04/10 10:15:51;;;;;;;3.97;3.67;;;10.20;99.90;;;;;;5021949;28;20571;-79
2021/04/10 10:18:19;;;;;;;4.30;4.00;;;10.30;99.90;;;;;;5044435;28;20745;-79
2021/04/10 10:21:01;;;;;;;4.67;4.20;;;10.30;99.90;;;;;;5042103;28;20425;-78
2021/04/10 10:23:40;;;;;;;4.63;3.83;;;10.40;99.90;;;;;;5023058;28;20491;-78
2021/04/10 10:26:35;;;;;;;4.07;3.50;;;10.50;99.90;;;;;;5030610;28;20410;-78
2021/04/10 10:29:09;;;;;;;5.43;4.50;;;10.40;99.90;;;;;;5036832;28;20491;-79
2021/04/10 10:31:50;;;;;;;4.00;3.70;;;10.40;99.90;;;;;;5014578;28;20430;-79
2021/04/10 10:34:22;;;;;;;4.10;3.77;;;10.40;99.90;;;;;;5041133;28;20541;-79
2021/04/10 10:36:48;;;;;;;6.93;3.67;;;10.50;99.90;;;;;;5041581;28;20428;-79
2021/04/10 10:39:29;;;;;;;5.30;4.33;;;10.40;99.90;;;;;;5048364;28;20421;-79
2021/04/10 10:41:56;;;;;;;6.80;4.40;;;10.40;99.90;;;;;;5029621;28;20840;-79
2021/04/10 10:44:22;;;;;;;10.03;4.20;;;10.40;99.90;;;;;;5032514;28;20460;-79
2021/04/10 10:47:01;;;;;;;4.77;4.37;;;10.60;99.90;;;;;;5047915;28;20405;-79
2021/04/10 10:49:27;;;;;;;4.73;4.40;;;10.60;99.90;;;;;;5033476;28;20182;-78
2021/04/10 10:51:53;;;;;;;5.47;4.80;;;10.70;99.90;;;;;;5041450;28;20421;-79
2021/04/10 10:54:28;;;;;;;5.70;4.00;;;10.60;99.90;;;;;;5041066;28;20448;-80
2021/04/10 10:56:54;;;;;;;4.90;4.37;;;10.50;99.90;;;;;;5032122;28;20805;-79
2021/04/10 10:59:19;;;;;;;4.10;3.70;;;10.50;99.90;;;;;;5041094;28;20428;-78
2021/04/10 11:01:45;;;;;;;5.90;4.10;;;10.40;99.90;;;;;;5036540;28;20179;-80
2021/04/10 11:04:41;;;;;;;5.27;3.93;;;10.50;99.90;;;;;;5035082;28;20295;-79
2021/04/10 11:07:08;;;;;;;4.60;3.77;;;10.40;99.90;;;;;;4942639;29;20197;-79
2021/04/10 11:09:39;;;;;;;6.40;4.40;;;10.50;99.90;;;;;;4939881;29;20422;-78
2021/04/10 11:12:11;;;;;;;5.07;4.23;;;10.50;99.90;;;;;;4919046;29;20768;-79
2021/04/10 11:14:45;;;;;;;6.10;4.80;;;10.60;99.90;;;;;;4929267;29;20425;-80
2021/04/10 11:17:12;;;;;;;4.30;3.50;;;10.70;99.90;;;;;;4957862;29;20405;-77
2021/04/10 11:19:45;;;;;;;4.20;3.80;;;10.70;99.90;;;;;;4944733;29;20462;-79
2021/04/10 11:22:15;;;;;;;3.87;3.57;;;10.70;99.90;;;;;;4945967;29;20432;-79
2021/04/10 11:24:43;;;;;;;3.87;3.57;;;10.70;99.90;;;;;;4947660;29;20520;-78
2021/04/10 11:27:25;;;;;;;4.70;3.60;;;10.70;99.90;;;;;;4948210;29;20918;-81
2021/04/10 11:29:59;;;;;;;3.57;3.20;;;10.70;99.90;;;;;;4939040;29;20475;-79
2021/04/10 11:32:31;;;;;;;4.63;4.00;;;10.60;99.90;;;;;;4943247;29;20555;-79
2021/04/10 11:35:03;;;;;;;6.20;4.10;;;10.70;99.90;;;;;;4953446;29;20445;-80
2021/04/10 11:37:34;;;;;;;5.20;3.90;;;10.90;99.90;;;;;;4936343;29;20426;-79
2021/04/10 11:40:20;;;;;;;4.37;3.20;;;11.00;99.90;;;;;;4952227;29;20441;-82
2021/04/10 11:42:50;;;;;;;3.67;3.20;;;11.00;99.90;;;;;;4968278;28;20503;-79
2021/04/10 11:45:37;;;;;;;3.23;3.03;;;11.10;99.90;;;;;;5044874;28;20417;-79
2021/04/10 11:48:19;;;;;;;3.47;3.17;;;11.10;99.90;;;;;;5039121;28;20835;-79
2021/04/10 11:50:51;;;;;;;3.57;3.27;;;11.10;99.90;;;;;;5052305;28;20431;-79
2021/04/10 11:53:22;;;;;;;3.53;3.23;;;10.90;99.90;;;;;;5045621;28;20477;-80
2021/04/10 11:55:49;;;;;;;3.30;3.00;;;10.80;99.90;;;;;;5046760;28;20794;-79
2021/04/10 11:58:30;;;;;;;3.70;2.93;;;10.80;99.90;;;;;;5042131;28;20930;-78
2021/04/10 12:01:07;;;;;;;4.93;3.50;;;10.70;99.90;;;;;;5025906;28;20424;-80
2021/04/10 12:03:33;;;;;;;3.40;3.00;;;10.70;99.90;;;;;;5029654;28;20468;-79
2021/04/10 12:05:59;;;;;;;3.30;3.00;;;10.70;99.90;;;;;;5039638;28;20424;-80
2021/04/10 12:08:27;;;;;;;4.63;2.90;;;10.70;99.90;;;;;;5039574;28;20421;-76
2021/04/10 12:10:57;;;;;;;4.10;3.70;;;10.80;99.90;;;;;;5041401;28;20183;-80
2021/04/10 12:13:25;;;;;;;5.33;3.13;;;10.80;99.90;;;;;;5038696;28;21066;-78
2021/04/10 12:15:52;;;;;;;3.10;2.90;;;10.90;99.90;;;;;;5039293;28;20779;-78
2021/04/10 12:18:18;;;;;;;8.20;2.77;;;10.90;99.90;;;;;;5044364;28;20468;-79
2021/04/10 12:20:45;;;;;;;4.43;3.50;;;10.90;99.90;;;;;;5026676;28;20435;-79
2021/04/10 12:23:10;;;;;;;3.27;2.97;;;10.90;99.90;;;;;;5044915;28;20462;-79
2021/04/10 12:25:37;;;;;;;4.70;2.93;;;11.00;99.90;;;;;;5042993;28;20902;-78
2021/04/10 12:28:03;;;;;;;6.03;3.17;;;11.00;99.90;;;;;;5045985;28;20183;-80
2021/04/10 12:30:29;;;;;;;3.27;2.90;;;11.20;99.90;;;;;;5048428;28;20948;-78
2021/04/10 12:32:55;;;;;;;4.27;3.87;;;11.30;99.90;;;;;;5030795;28;20486;-79
2021/04/10 12:35:21;;;;;;;6.70;3.30;;;11.40;99.90;;;;;;5050336;28;20698;-78
2021/04/10 12:37:46;;;;;;;4.27;3.40;;;11.50;99.90;;;;;;5048648;28;20228;-79
2021/04/10 12:40:14;;;;;;;5.20;3.27;;;11.70;99.90;;;;;;5048345;28;20186;-79
2021/04/10 12:42:39;;;;;;;3.53;3.23;;;11.90;99.90;;;;;;5049978;28;20212;-79
2021/04/10 12:45:06;;;;;;;5.10;3.90;;;12.00;99.90;;;;;;5054050;28;20449;-78
2021/04/10 12:47:32;;;;;;;4.43;3.10;;;12.10;99.90;;;;;;5025561;28;20185;-79
2021/04/10 12:49:58;;;;;;;8.23;3.20;;;12.20;99.90;;;;;;5044372;28;20532;-78
2021/04/10 12:52:23;;;;;;;7.30;3.50;;;12.10;99.90;;;;;;5027991;28;20186;-77
2021/04/10 12:54:49;;;;;;;4.30;3.03;;;12.30;99.90;;;;;;5039355;28;20234;-77
2021/04/10 12:57:15;;;;;;;5.60;3.20;;;12.30;99.90;;;;;;5047110;28;20178;-78
2021/04/10 12:59:41;;;;;;;3.53;3.23;;;12.30;99.90;;;;;;5044082;28;20186;-79
2021/04/10 13:02:07;;;;;;;3.80;3.50;;;12.20;99.90;;;;;;5053266;28;20429;-79